createdAt,value
2018-05-16T00:02:04.438Z,12.13
2018-05-16T00:04:31.963Z,11.57
2018-05-16T00:06:59.498Z,13.23
2018-05-16T00:09:27.098Z,12.53
2018-05-16T00:11:54.625Z,12.77
2018-05-16T00:14:22.147Z,12.00
2018-05-16T00:16:49.743Z,12.90
2018-05-16T00:19:17.269Z,12.47
2018-05-16T00:21:44.797Z,13.83
2018-05-16T00:24:12.310Z,12.40
2018-05-16T00:26:39.893Z,12.93
2018-05-16T00:29:07.410Z,12.53
2018-05-16T00:31:34.926Z,13.53
2018-05-16T00:34:02.449Z,13.93
2018-05-16T00:36:29.989Z,12.73
2018-05-16T00:38:57.571Z,12.73
2018-05-16T00:41:25.084Z,14.13
2018-05-16T00:43:52.612Z,12.63
2018-05-16T00:46:20.151Z,13.27
2018-05-16T00:48:47.700Z,12.87
2018-05-16T00:51:21.037Z,12.43
2018-05-16T00:53:48.598Z,14.23
2018-05-16T00:56:16.355Z,13.03
2018-05-16T00:58:44.204Z,14.20
2018-05-16T01:01:12.054Z,14.77
2018-05-16T01:03:39.957Z,15.23
2018-05-16T01:06:07.756Z,14.10
2018-05-16T01:08:35.607Z,13.30
2018-05-16T01:11:03.315Z,14.97
2018-05-16T01:13:31.171Z,15.20
2018-05-16T01:15:58.820Z,14.30
2018-05-16T01:18:26.468Z,14.20
2018-05-16T01:20:53.980Z,14.30
2018-05-16T01:23:21.490Z,13.83
2018-05-16T01:25:48.993Z,13.83
2018-05-16T01:28:16.526Z,13.90
2018-05-16T01:30:44.213Z,14.53
2018-05-16T01:33:11.753Z,15.17
2018-05-16T01:35:39.283Z,13.83
2018-05-16T01:38:06.798Z,13.67
2018-05-16T01:40:34.338Z,13.93
2018-05-16T01:43:01.870Z,12.60
2018-05-16T01:45:29.393Z,13.90
2018-05-16T01:47:56.923Z,13.80
2018-05-16T01:50:24.445Z,13.43
2018-05-16T01:52:51.952Z,13.60
2018-05-16T01:55:19.547Z,12.97
2018-05-16T01:57:47.051Z,12.50
2018-05-16T02:00:14.622Z,13.70
2018-05-16T02:02:42.181Z,13.43
2018-05-16T02:05:09.921Z,13.60
2018-05-16T02:07:37.716Z,13.17
2018-05-16T02:10:05.370Z,14.63
2018-05-16T02:12:33.078Z,13.03
2018-05-16T02:15:00.734Z,13.57
2018-05-16T02:17:28.529Z,12.50
2018-05-16T02:19:56.378Z,14.37
2018-05-16T02:22:24.228Z,13.03
2018-05-16T02:24:51.746Z,13.40
2018-05-16T02:27:19.390Z,12.63
2018-05-16T02:29:47.189Z,13.73
2018-05-16T02:32:14.906Z,13.30
2018-05-16T02:34:42.485Z,13.97
2018-05-16T02:37:10.344Z,14.20
2018-05-16T02:39:37.868Z,13.30
2018-05-16T02:42:05.410Z,13.60
2018-05-16T02:44:33.050Z,13.47
2018-05-16T02:47:00.618Z,13.23
2018-05-16T02:49:28.165Z,13.77
2018-05-16T02:51:56.262Z,14.07
2018-05-16T02:54:24.207Z,14.60
2018-05-16T02:56:51.679Z,14.10
2018-05-16T02:59:19.361Z,14.93
2018-05-16T03:01:46.871Z,14.80
2018-05-16T03:04:14.383Z,14.60
2018-05-16T03:06:42.051Z,14.30
2018-05-16T03:09:09.580Z,15.03
2018-05-16T03:11:37.090Z,13.83
2018-05-16T03:14:04.666Z,14.47
2018-05-16T03:16:32.174Z,14.53
2018-05-16T03:18:59.676Z,16.17
2018-05-16T03:21:27.203Z,14.43
2018-05-16T03:23:54.831Z,15.30
2018-05-16T03:26:22.364Z,15.73
2018-05-16T03:28:50.284Z,16.13
2018-05-16T03:31:18.141Z,15.57
2018-05-16T03:33:45.837Z,15.00
2018-05-16T03:36:13.492Z,14.30
2018-05-16T03:38:41.934Z,14.97
2018-05-16T03:41:09.590Z,15.00
2018-05-16T03:43:37.384Z,16.17
2018-05-16T03:46:05.193Z,15.50
2018-05-16T03:48:32.785Z,16.20
2018-05-16T03:51:00.335Z,16.87
2018-05-16T03:53:27.846Z,15.57
2018-05-16T03:55:55.362Z,16.17
2018-05-16T03:58:28.706Z,15.90
2018-05-16T04:01:02.035Z,15.90
2018-05-16T04:03:35.357Z,15.43
2018-05-16T04:06:02.838Z,16.97
2018-05-16T04:08:30.488Z,16.73
2018-05-16T04:10:58.371Z,15.83
2018-05-16T04:13:26.395Z,16.57
2018-05-16T04:15:53.929Z,16.43
2018-05-16T04:18:21.514Z,17.93
2018-05-16T04:20:49.063Z,18.00
2018-05-16T04:23:16.578Z,16.50
2018-05-16T04:25:44.122Z,16.63
2018-05-16T04:28:11.666Z,17.37
2018-05-16T04:30:39.230Z,17.00
2018-05-16T04:33:06.753Z,16.80
2018-05-16T04:35:34.366Z,17.10
2018-05-16T04:38:01.898Z,17.27
2018-05-16T04:40:29.427Z,17.30
2018-05-16T04:42:56.989Z,17.97
2018-05-16T04:45:24.504Z,18.50
2018-05-16T04:47:52.084Z,17.60
2018-05-16T04:50:19.644Z,18.17
2018-05-16T04:52:47.150Z,17.67
2018-05-16T04:55:14.665Z,18.73
2018-05-16T04:57:42.205Z,17.97
2018-05-16T05:00:10.671Z,18.30
2018-05-16T05:02:38.362Z,18.63
2018-05-16T05:05:05.914Z,18.03
2018-05-16T05:07:33.425Z,17.73
2018-05-16T05:10:00.951Z,18.47
2018-05-16T05:12:28.491Z,18.23
2018-05-16T05:14:56.050Z,18.90
2018-05-16T05:17:23.585Z,17.83
2018-05-16T05:19:51.149Z,17.30
2018-05-16T05:22:18.673Z,17.93
2018-05-16T05:24:46.203Z,17.50
2018-05-16T05:27:13.760Z,17.13
2018-05-16T05:29:41.280Z,17.83
2018-05-16T05:32:08.790Z,18.90
2018-05-16T05:34:36.306Z,17.53
2018-05-16T05:37:03.828Z,17.70
2018-05-16T05:39:31.345Z,18.80
2018-05-16T05:41:58.869Z,19.17
2018-05-16T05:44:26.377Z,17.67
2018-05-16T05:46:53.938Z,17.77
2018-05-16T05:49:21.673Z,17.67
2018-05-16T05:51:49.197Z,19.47
2018-05-16T05:54:16.694Z,19.00
2018-05-16T05:56:44.191Z,18.77
2018-05-16T05:59:11.733Z,19.30
2018-05-16T06:01:39.309Z,18.57
2018-05-16T06:04:06.878Z,19.30
2018-05-16T06:06:34.424Z,19.20
2018-05-16T06:09:02.005Z,20.10
2018-05-16T06:11:29.767Z,19.13
2018-05-16T06:13:57.368Z,19.20
2018-05-16T06:16:24.956Z,19.77
2018-05-16T06:18:52.538Z,19.20
2018-05-16T06:21:20.098Z,18.47
2018-05-16T06:23:47.647Z,19.33
2018-05-16T06:26:15.186Z,19.77
2018-05-16T06:28:42.724Z,18.63
2018-05-16T06:31:10.262Z,19.33
2018-05-16T06:33:37.770Z,19.90
2018-05-16T06:36:05.301Z,19.87
2018-05-16T06:38:32.812Z,20.40
2018-05-16T06:41:00.319Z,19.13
2018-05-16T06:43:28.222Z,19.83
2018-05-16T06:45:55.919Z,19.83
2018-05-16T06:48:23.783Z,20.87
2018-05-16T06:50:51.351Z,20.67
2018-05-16T06:53:19.119Z,20.63
2018-05-16T06:55:46.764Z,20.17
2018-05-16T06:58:14.330Z,20.07
2018-05-16T07:00:42.007Z,20.07
2018-05-16T07:03:09.666Z,22.07
2018-05-16T07:05:37.240Z,20.27
2018-05-16T07:08:04.760Z,20.47
2018-05-16T07:10:32.277Z,20.97
2018-05-16T07:12:59.822Z,19.93
2018-05-16T07:15:27.348Z,20.83
2018-05-16T07:17:55.020Z,22.40
2018-05-16T07:20:22.541Z,21.37
2018-05-16T07:22:50.498Z,21.77
2018-05-16T07:25:18.131Z,22.03
2018-05-16T07:27:45.770Z,20.50
2018-05-16T07:30:13.604Z,21.80
2018-05-16T07:32:41.297Z,21.97
2018-05-16T07:35:08.927Z,23.10
2018-05-16T07:37:36.477Z,21.30
2018-05-16T07:40:03.980Z,23.87
2018-05-16T07:42:32.017Z,23.07
2018-05-16T07:44:59.671Z,23.97
2018-05-16T07:47:27.327Z,22.23
2018-05-16T07:49:55.121Z,22.07
2018-05-16T07:52:22.773Z,21.90
2018-05-16T07:54:50.625Z,23.83
2018-05-16T07:57:18.334Z,23.17
2018-05-16T07:59:45.862Z,21.93
2018-05-16T08:02:13.782Z,21.67
2018-05-16T08:04:41.434Z,23.20
2018-05-16T08:07:09.089Z,23.00
2018-05-16T08:09:36.937Z,21.83
2018-05-16T08:12:04.551Z,23.83
2018-05-16T08:14:32.084Z,22.40
2018-05-16T08:16:59.594Z,22.40
2018-05-16T08:19:27.092Z,23.50
2018-05-16T08:21:54.688Z,24.93
2018-05-16T08:24:22.162Z,23.27
2018-05-16T08:26:50.087Z,23.30
2018-05-16T08:29:17.641Z,23.07
2018-05-16T08:31:45.161Z,24.63
2018-05-16T08:34:12.940Z,22.77
2018-05-16T08:36:40.499Z,20.67
2018-05-16T08:39:08.041Z,21.87
2018-05-16T08:41:36.682Z,22.07
2018-05-16T08:44:04.206Z,21.80
2018-05-16T08:46:32.133Z,20.70
2018-05-16T08:48:59.984Z,22.03
2018-05-16T08:51:27.833Z,22.23
2018-05-16T08:53:55.540Z,22.77
2018-05-16T08:56:23.139Z,22.83
2018-05-16T08:58:51.245Z,22.73
2018-05-16T09:01:18.924Z,24.50
2018-05-16T09:03:46.671Z,22.07
2018-05-16T09:06:14.405Z,21.80
2018-05-16T09:08:42.194Z,21.97
2018-05-16T09:11:10.045Z,22.37
2018-05-16T09:13:37.751Z,23.10
2018-05-16T09:16:05.548Z,22.13
2018-05-16T09:18:33.594Z,22.67
2018-05-16T09:21:01.093Z,22.60
2018-05-16T09:23:29.491Z,20.93
2018-05-16T09:25:57.200Z,21.50
2018-05-16T09:28:24.855Z,24.73
2018-05-16T09:30:52.650Z,21.57
2018-05-16T09:33:20.502Z,21.87
2018-05-16T09:35:48.153Z,22.13
2018-05-16T09:38:15.857Z,21.43
2018-05-16T09:40:43.661Z,21.63
2018-05-16T09:43:11.167Z,23.50
2018-05-16T09:45:38.746Z,22.77
2018-05-16T09:48:06.252Z,20.07
2018-05-16T09:50:33.783Z,20.73
2018-05-16T09:53:01.295Z,22.07
2018-05-16T09:55:28.808Z,21.23
2018-05-16T09:57:56.304Z,21.93
2018-05-16T10:00:29.852Z,21.40
2018-05-16T10:02:57.474Z,22.20
2018-05-16T10:05:24.987Z,22.10
2018-05-16T10:07:52.520Z,21.63
2018-05-16T10:10:20.031Z,22.23
2018-05-16T10:12:47.534Z,22.80
2018-05-16T10:15:15.073Z,21.67
2018-05-16T10:17:42.578Z,22.30
2018-05-16T10:20:10.224Z,22.53
2018-05-16T10:22:37.672Z,20.50
2018-05-16T10:25:05.182Z,21.20
2018-05-16T10:27:33.071Z,20.03
2018-05-16T10:30:00.575Z,20.40
2018-05-16T10:32:28.097Z,19.83
2018-05-16T10:34:56.203Z,18.77
2018-05-16T10:37:23.727Z,19.80
2018-05-16T10:39:51.246Z,21.07
2018-05-16T10:42:18.831Z,21.10
2018-05-16T10:44:46.351Z,19.83
2018-05-16T10:47:13.901Z,20.47
2018-05-16T10:49:41.408Z,18.83
2018-05-16T10:52:08.997Z,19.33
2018-05-16T10:54:36.470Z,19.20
2018-05-16T10:57:04.027Z,18.33
2018-05-16T10:59:31.717Z,19.00
2018-05-16T11:01:59.277Z,19.10
2018-05-16T11:04:26.788Z,20.47
2018-05-16T11:06:54.345Z,19.80
2018-05-16T11:09:21.850Z,18.63
2018-05-16T11:11:49.359Z,19.60
2018-05-16T11:14:16.901Z,19.87
2018-05-16T11:16:44.432Z,19.70
2018-05-16T11:19:11.948Z,19.33
2018-05-16T11:21:39.505Z,18.33
2018-05-16T11:24:07.040Z,19.97
2018-05-16T11:26:34.791Z,19.73
2018-05-16T11:29:02.419Z,19.23
2018-05-16T11:31:29.921Z,20.53
2018-05-16T11:33:57.477Z,20.33
2018-05-16T11:36:24.993Z,19.00
2018-05-16T11:38:52.572Z,19.30
2018-05-16T11:41:20.105Z,19.67
2018-05-16T11:43:47.612Z,18.77
2018-05-16T11:46:15.144Z,17.60
2018-05-16T11:48:42.675Z,17.43
2018-05-16T11:51:10.236Z,16.27
2018-05-16T11:53:37.748Z,17.53
2018-05-16T11:56:05.273Z,17.17
2018-05-16T11:58:32.779Z,16.70
2018-05-16T12:01:00.282Z,17.60
2018-05-16T12:03:27.859Z,16.50
2018-05-16T12:05:55.419Z,15.13
2018-05-16T12:08:22.934Z,16.67
2018-05-16T12:10:50.552Z,16.50
2018-05-16T12:13:18.127Z,15.97
2018-05-16T12:15:45.830Z,15.50
2018-05-16T12:18:13.362Z,16.73
2018-05-16T12:20:41.368Z,16.63
2018-05-16T12:23:09.054Z,17.63
2018-05-16T12:25:37.176Z,16.60
2018-05-16T12:28:05.082Z,16.30
2018-05-16T12:30:33.126Z,17.40
2018-05-16T12:33:00.841Z,16.87
2018-05-16T12:35:28.715Z,16.60
2018-05-16T12:37:56.561Z,15.37
2018-05-16T12:40:24.331Z,15.83
2018-05-16T12:42:57.882Z,17.00
2018-05-16T12:45:25.595Z,16.50
2018-05-16T12:47:53.585Z,16.10
2018-05-16T12:50:21.287Z,15.80
2018-05-16T12:52:48.832Z,16.73
2018-05-16T12:55:16.387Z,15.17
2018-05-16T12:57:44.048Z,15.57
2018-05-16T13:00:11.904Z,16.47
2018-05-16T13:02:39.701Z,16.73
2018-05-16T13:05:07.213Z,17.37
2018-05-16T13:07:34.738Z,17.13
2018-05-16T13:10:02.255Z,15.47
2018-05-16T13:12:29.765Z,17.50
2018-05-16T13:14:57.446Z,17.87
2018-05-16T13:17:24.953Z,17.73
2018-05-16T13:19:52.458Z,20.63
2018-05-16T13:22:20.015Z,19.77
2018-05-16T13:24:47.550Z,18.97
2018-05-16T13:27:15.249Z,19.40
2018-05-16T13:29:42.902Z,20.03
2018-05-16T13:32:10.644Z,19.67
2018-05-16T13:34:38.172Z,18.47
2018-05-16T13:37:05.699Z,20.67
2018-05-16T13:39:33.223Z,19.53
2018-05-16T13:42:00.731Z,19.30
2018-05-16T13:44:28.262Z,19.63
2018-05-16T13:46:55.867Z,19.57
2018-05-16T13:49:23.382Z,21.43
2018-05-16T13:51:51.056Z,20.67
2018-05-16T13:54:18.566Z,20.97
2018-05-16T13:56:46.109Z,21.03
2018-05-16T13:59:13.625Z,21.53
2018-05-16T14:01:41.161Z,21.07
2018-05-16T14:04:08.681Z,20.57
2018-05-16T14:06:36.281Z,20.87
2018-05-16T14:09:03.856Z,20.20
2018-05-16T14:11:31.368Z,19.30
2018-05-16T14:13:58.883Z,20.97
2018-05-16T14:16:26.417Z,19.40
2018-05-16T14:18:55.152Z,21.40
2018-05-16T14:21:22.843Z,19.43
2018-05-16T14:23:50.360Z,21.00
2018-05-16T14:26:17.986Z,19.97
2018-05-16T14:28:45.485Z,19.47
2018-05-16T14:31:13.011Z,20.10
2018-05-16T14:33:40.579Z,18.67
2018-05-16T14:36:08.083Z,19.23
2018-05-16T14:38:35.651Z,20.00
2018-05-16T14:41:03.333Z,19.00
2018-05-16T14:43:30.858Z,18.53
2018-05-16T14:45:58.358Z,20.00
2018-05-16T14:48:26.180Z,19.93
2018-05-16T14:50:54.678Z,20.47
2018-05-16T14:53:22.190Z,21.23
2018-05-16T14:55:49.991Z,21.07
2018-05-16T14:58:17.646Z,21.57
2018-05-16T15:00:45.351Z,21.87
2018-05-16T15:03:13.001Z,21.37
2018-05-16T15:05:40.803Z,21.50
2018-05-16T15:08:08.311Z,23.50
2018-05-16T15:10:35.966Z,22.40
2018-05-16T15:13:03.686Z,23.53
2018-05-16T15:15:31.418Z,25.23
2018-05-16T15:17:59.266Z,25.07
2018-05-16T15:20:26.969Z,24.33
2018-05-16T15:22:54.626Z,24.90
2018-05-16T15:25:22.480Z,24.83
2018-05-16T15:27:50.006Z,24.90
2018-05-16T15:30:17.527Z,26.07
2018-05-16T15:32:45.053Z,25.80
2018-05-16T15:35:12.642Z,26.03
2018-05-16T15:37:40.253Z,25.47
2018-05-16T15:40:08.147Z,27.10
2018-05-16T15:42:35.997Z,26.30
2018-05-16T15:45:03.580Z,26.13
2018-05-16T15:47:31.084Z,26.47
2018-05-16T15:49:58.605Z,25.27
2018-05-16T15:52:26.132Z,26.03
2018-05-16T15:54:53.694Z,24.57
2018-05-16T15:57:21.206Z,24.97
2018-05-16T15:59:48.737Z,24.27
2018-05-16T16:02:16.277Z,25.10
2018-05-16T16:04:43.785Z,25.83
2018-05-16T16:07:11.339Z,24.87
2018-05-16T16:09:38.895Z,25.73
2018-05-16T16:12:06.439Z,25.60
2018-05-16T16:14:33.983Z,26.00
2018-05-16T16:17:01.523Z,24.60
2018-05-16T16:19:29.059Z,25.60
2018-05-16T16:21:56.574Z,25.80
2018-05-16T16:24:24.107Z,25.83
2018-05-16T16:26:51.666Z,24.90
2018-05-16T16:29:19.191Z,23.20
2018-05-16T16:31:46.716Z,24.87
2018-05-16T16:34:14.237Z,24.47
2018-05-16T16:36:42.081Z,25.53
2018-05-16T16:39:09.661Z,25.70
2018-05-16T16:41:37.137Z,25.30
2018-05-16T16:44:04.665Z,24.23
2018-05-16T16:46:32.169Z,26.03
2018-05-16T16:48:59.687Z,23.57
2018-05-16T16:51:27.203Z,25.80
2018-05-16T16:53:54.726Z,24.73
2018-05-16T16:56:22.237Z,25.37
2018-05-16T16:58:49.847Z,26.67
2018-05-16T17:01:17.353Z,26.40
2018-05-16T17:03:44.876Z,24.40
2018-05-16T17:06:12.411Z,26.63
2018-05-16T17:08:39.918Z,24.40
2018-05-16T17:11:07.422Z,24.40
2018-05-16T17:13:34.938Z,26.50
2018-05-16T17:16:02.470Z,25.63
2018-05-16T17:18:29.983Z,24.17
2018-05-16T17:20:57.496Z,24.00
2018-05-16T17:23:24.998Z,22.93
2018-05-16T17:25:52.519Z,24.13
2018-05-16T17:28:20.054Z,23.50
2018-05-16T17:30:48.001Z,24.33
2018-05-16T17:33:15.557Z,22.87
2018-05-16T17:35:43.104Z,24.13
2018-05-16T17:38:10.630Z,23.97
2018-05-16T17:40:38.146Z,24.10
2018-05-16T17:43:05.668Z,24.90
2018-05-16T17:45:33.195Z,24.37
2018-05-16T17:48:00.747Z,24.93
2018-05-16T17:50:28.279Z,25.37
2018-05-16T17:52:55.806Z,26.40
2018-05-16T17:55:23.317Z,25.97
2018-05-16T17:57:50.835Z,24.33
2018-05-16T18:00:18.376Z,26.40
2018-05-16T18:02:45.945Z,24.10
2018-05-16T18:05:13.454Z,23.20
2018-05-16T18:07:40.960Z,25.23
2018-05-16T18:10:08.473Z,25.17
2018-05-16T18:12:35.978Z,25.00
2018-05-16T18:15:12.210Z,23.90
2018-05-16T18:17:39.730Z,23.23
2018-05-16T18:20:07.259Z,26.30
2018-05-16T18:22:34.774Z,27.00
2018-05-16T18:25:02.308Z,26.00
2018-05-16T18:27:29.840Z,25.87
2018-05-16T18:29:57.351Z,26.00
2018-05-16T18:32:24.882Z,25.63
2018-05-16T18:34:52.529Z,25.90
2018-05-16T18:37:20.042Z,24.97
2018-05-16T18:39:47.610Z,26.07
2018-05-16T18:42:15.125Z,24.47
2018-05-16T18:44:42.649Z,25.87
2018-05-16T18:47:10.157Z,25.47
2018-05-16T18:49:37.687Z,25.37
2018-05-16T18:52:05.203Z,24.63
2018-05-16T18:54:32.726Z,24.63
2018-05-16T18:57:00.257Z,25.60
2018-05-16T18:59:27.783Z,28.03
2018-05-16T19:01:55.311Z,26.27
2018-05-16T19:04:22.830Z,27.00
2018-05-16T19:06:50.397Z,27.90
2018-05-16T19:09:17.905Z,27.93
2018-05-16T19:11:45.450Z,27.43
2018-05-16T19:14:12.957Z,27.67
2018-05-16T19:16:40.485Z,26.47
2018-05-16T19:19:08.023Z,25.93
2018-05-16T19:21:35.489Z,26.93
2018-05-16T19:24:03.007Z,24.90
2018-05-16T19:26:30.518Z,25.43
2018-05-16T19:28:58.025Z,25.13
2018-05-16T19:31:25.541Z,25.03
2018-05-16T19:33:53.093Z,23.43
2018-05-16T19:36:20.616Z,23.63
2018-05-16T19:38:48.176Z,23.23
2018-05-16T19:41:15.681Z,17.27
2018-05-16T19:43:43.226Z,16.27
2018-05-16T19:46:10.849Z,12.40
2018-05-16T19:48:38.309Z,10.63
2018-05-16T19:51:05.980Z,10.23
2018-05-16T19:53:33.673Z,9.87
2018-05-16T19:56:01.203Z,8.80
2018-05-16T19:58:28.815Z,8.70
2018-05-16T20:00:56.479Z,8.17
2018-05-16T20:03:24.017Z,8.60
2018-05-16T20:05:51.538Z,7.27
2018-05-16T20:08:19.076Z,7.60
2018-05-16T20:10:46.623Z,6.80
2018-05-16T20:13:14.111Z,7.03
2018-05-16T20:15:41.658Z,7.57
2018-05-16T20:18:09.197Z,7.83
2018-05-16T20:20:36.713Z,6.80
2018-05-16T20:23:04.269Z,6.10
2018-05-16T20:25:31.806Z,6.03
2018-05-16T20:27:59.306Z,5.57
2018-05-16T20:30:26.809Z,6.03
2018-05-16T20:32:54.308Z,6.87
2018-05-16T20:35:21.804Z,5.43
2018-05-16T20:37:49.360Z,5.90
2018-05-16T20:40:16.877Z,6.33
2018-05-16T20:42:44.849Z,6.00
2018-05-16T20:45:12.346Z,5.63
2018-05-16T20:47:39.884Z,5.40
2018-05-16T20:50:07.397Z,5.17
2018-05-16T20:52:34.919Z,4.97
2018-05-16T20:55:02.429Z,4.43
2018-05-16T20:57:29.929Z,5.33
2018-05-16T20:59:57.436Z,4.87
2018-05-16T21:02:24.941Z,5.00
2018-05-16T21:04:52.446Z,5.00
2018-05-16T21:07:19.947Z,4.47
2018-05-16T21:09:47.522Z,4.40
2018-05-16T21:12:15.022Z,3.97
2018-05-16T21:14:42.862Z,4.07
2018-05-16T21:17:10.353Z,3.97
2018-05-16T21:19:37.849Z,3.70
2018-05-16T21:22:05.340Z,3.50
2018-05-16T21:24:32.921Z,4.13
2018-05-16T21:27:00.418Z,4.53
2018-05-16T21:29:27.938Z,3.33
2018-05-16T21:31:55.462Z,4.00
2018-05-16T21:34:22.948Z,3.60
2018-05-16T21:36:50.445Z,3.60
2018-05-16T21:39:18.193Z,3.80
2018-05-16T21:41:45.744Z,3.27
2018-05-16T21:44:13.358Z,3.13
2018-05-16T21:46:40.850Z,3.47
2018-05-16T21:49:08.350Z,3.47
2018-05-16T21:51:35.863Z,2.93
2018-05-16T21:54:03.374Z,2.90
2018-05-16T21:56:30.908Z,3.10
2018-05-16T21:58:58.430Z,3.50
2018-05-16T22:01:25.990Z,2.77
2018-05-16T22:03:53.526Z,3.30
2018-05-16T22:06:21.052Z,3.33
2018-05-16T22:08:48.543Z,3.27
2018-05-16T22:11:16.046Z,3.23
2018-05-16T22:13:43.613Z,3.27
2018-05-16T22:16:11.125Z,3.80
2018-05-16T22:18:38.674Z,3.30
2018-05-16T22:21:06.191Z,3.03
2018-05-16T22:23:33.696Z,2.90
2018-05-16T22:26:01.195Z,3.60
2018-05-16T22:28:28.686Z,3.53
2018-05-16T22:31:01.898Z,3.00
2018-05-16T22:33:34.945Z,2.90
2018-05-16T22:36:08.210Z,3.80
2018-05-16T22:38:41.253Z,3.63
2018-05-16T22:41:14.439Z,3.60
2018-05-16T22:43:47.639Z,3.30
2018-05-16T22:46:15.193Z,3.50
2018-05-16T22:48:42.835Z,4.27
2018-05-16T22:51:10.328Z,3.63
2018-05-16T22:53:37.893Z,4.00
2018-05-16T22:56:05.391Z,4.13
2018-05-16T22:58:32.892Z,4.23
2018-05-16T23:01:00.414Z,3.90
2018-05-16T23:03:28.041Z,3.93
2018-05-16T23:05:55.845Z,4.27
2018-05-16T23:08:23.554Z,3.67
2018-05-16T23:10:51.348Z,4.77
2018-05-16T23:13:19.055Z,3.60
2018-05-16T23:15:47.048Z,4.43
2018-05-16T23:18:14.552Z,3.70
2018-05-16T23:20:42.213Z,3.83
2018-05-16T23:23:10.009Z,3.90
2018-05-16T23:25:37.711Z,4.03
2018-05-16T23:28:05.514Z,3.90
2018-05-16T23:30:33.117Z,3.97
2018-05-16T23:33:00.601Z,4.30
2018-05-16T23:35:28.101Z,4.43
2018-05-16T23:37:55.606Z,4.37
2018-05-16T23:40:23.118Z,4.30
2018-05-16T23:42:50.614Z,4.67
2018-05-16T23:45:18.133Z,4.47
2018-05-16T23:47:45.869Z,3.53
2018-05-16T23:50:13.378Z,5.27
2018-05-16T23:52:40.921Z,4.30
2018-05-16T23:55:08.428Z,3.77
2018-05-16T23:57:35.921Z,4.73
